Time;durP1;ratioP1;P1;durP2;ratioP2;P2;SDS_P1;SDS_P2;PMS_P1;PMS_P2;Temp;Humidity;BMP_temperature;BMP_pressure;BME280_temperature;BME280_humidity;BME280_pressure;Samples;Min_cycle;Max_cycle;Signal;HPM_P1;HPM_P2
2022/03/11 00:01:06;;;;;;;5.55;4.70;;;;;;;;;;4999211;28;20055;-62
2022/03/11 00:03:31;;;;;;;4.57;4.18;;;;;;;;;;4999181;28;20076;-61
2022/03/11 00:05:57;;;;;;;5.47;4.95;;;;;;;;;;5000491;28;21155;-61
2022/03/11 00:08:22;;;;;;;5.32;4.75;;;;;;;;;;5000716;28;20100;-60
2022/03/11 00:10:48;;;;;;;5.07;4.65;;;;;;;;;;4999976;28;20040;-60
2022/03/11 00:13:13;;;;;;;7.10;4.38;;;;;;;;;;5000698;28;20040;-60
2022/03/11 00:15:39;;;;;;;5.47;5.07;;;;;;;;;;5000393;28;20038;-61
2022/03/11 00:18:05;;;;;;;5.00;4.60;;;;;;;;;;4993997;28;20129;-62
2022/03/11 00:20:31;;;;;;;5.25;4.75;;;;;;;;;;4995495;28;20037;-61
2022/03/11 00:22:57;;;;;;;4.97;4.55;;;;;;;;;;4999863;28;20088;-61
2022/03/11 00:25:23;;;;;;;6.05;5.28;;;;;;;;;;4997618;28;20775;-61
2022/03/11 00:27:49;;;;;;;5.80;5.32;;;;;;;;;;4997539;28;20415;-61
2022/03/11 00:30:15;;;;;;;5.20;4.70;;;;;;;;;;4998246;28;20031;-61
2022/03/11 00:32:41;;;;;;;4.53;4.13;;;;;;;;;;4999268;28;20045;-60
2022/03/11 00:35:09;;;;;;;5.18;4.78;;;;;;;;;;5000020;28;20092;-61
2022/03/11 00:37:38;;;;;;;6.38;5.78;;;;;;;;;;4998564;28;20026;-61
2022/03/11 00:40:06;;;;;;;6.00;5.43;;;;;;;;;;4998102;28;20476;-60
2022/03/11 00:42:31;;;;;;;5.00;4.60;;;;;;;;;;4997888;28;20085;-60
2022/03/11 00:44:57;;;;;;;4.90;4.50;;;;;;;;;;4999039;28;20049;-60
2022/03/11 00:47:22;;;;;;;5.43;4.93;;;;;;;;;;4995621;28;20106;-60
2022/03/11 00:49:48;;;;;;;6.20;5.60;;;;;;;;;;4999933;28;20044;-60
2022/03/11 00:52:13;;;;;;;5.38;4.90;;;;;;;;;;5001332;28;20450;-59
2022/03/11 00:54:38;;;;;;;5.00;4.60;;;;;;;;;;4999714;28;20034;-61
2022/03/11 00:57:04;;;;;;;6.80;5.57;;;;;;;;;;4993131;28;20101;-61
2022/03/11 00:59:29;;;;;;;5.30;4.80;;;;;;;;;;4994374;28;20031;-60
2022/03/11 01:01:55;;;;;;;9.32;5.22;;;;;;;;;;5001013;28;20125;-60
2022/03/11 01:04:20;;;;;;;5.15;4.53;;;;;;;;;;5000885;28;20427;-61
2022/03/11 01:06:46;;;;;;;5.40;4.95;;;;;;;;;;4998911;28;20482;-61
2022/03/11 01:09:11;;;;;;;5.00;4.53;;;;;;;;;;4996067;28;20490;-61
2022/03/11 01:11:37;;;;;;;5.00;4.60;;;;;;;;;;4998578;28;20030;-61
2022/03/11 01:14:03;;;;;;;4.35;3.95;;;;;;;;;;4999922;28;20487;-61
2022/03/11 01:16:29;;;;;;;5.18;4.68;;;;;;;;;;4999040;28;20040;-61
2022/03/11 01:18:54;;;;;;;5.70;5.13;;;;;;;;;;4994818;28;20058;-61
2022/03/11 01:21:20;;;;;;;5.53;4.90;;;;;;;;;;4995097;28;20038;-62
2022/03/11 01:23:46;;;;;;;5.68;4.88;;;;;;;;;;4995824;28;20117;-60
2022/03/11 01:26:12;;;;;;;4.88;4.47;;;;;;;;;;4995644;28;20037;-60
2022/03/11 01:28:41;;;;;;;5.32;4.82;;;;;;;;;;4994103;28;20033;-61
2022/03/11 01:31:07;;;;;;;6.60;4.85;;;;;;;;;;4995175;28;20072;-61
2022/03/11 01:33:33;;;;;;;5.95;5.45;;;;;;;;;;4995039;28;20030;-62
2022/03/11 01:35:58;;;;;;;6.45;5.25;;;;;;;;;;4999808;28;20034;-61
2022/03/11 01:38:23;;;;;;;7.20;6.55;;;;;;;;;;4995077;28;20034;-61
2022/03/11 01:40:49;;;;;;;5.95;5.28;;;;;;;;;;4999060;28;20077;-61
2022/03/11 01:43:16;;;;;;;6.78;5.53;;;;;;;;;;4995733;28;20038;-62
2022/03/11 01:45:42;;;;;;;5.40;4.90;;;;;;;;;;4991590;28;20861;-62
2022/03/11 01:48:09;;;;;;;28.00;7.25;;;;;;;;;;4994439;28;20840;-61
2022/03/11 01:50:37;;;;;;;6.22;5.63;;;;;;;;;;4994189;28;20046;-61
2022/03/11 01:53:03;;;;;;;5.80;5.32;;;;;;;;;;4993886;28;20124;-61
2022/03/11 01:55:28;;;;;;;5.93;5.32;;;;;;;;;;4996471;28;20121;-61
2022/03/11 01:57:53;;;;;;;6.13;5.63;;;;;;;;;;4996480;28;20058;-60
2022/03/11 02:00:19;;;;;;;5.80;5.07;;;;;;;;;;4993216;28;20464;-61
2022/03/11 02:02:44;;;;;;;5.90;5.40;;;;;;;;;;4994647;28;20030;-61
2022/03/11 02:05:10;;;;;;;8.57;6.20;;;;;;;;;;4994889;28;20045;-60
2022/03/11 02:07:35;;;;;;;5.95;5.38;;;;;;;;;;4995340;28;20031;-60
2022/03/11 02:10:01;;;;;;;5.20;4.70;;;;;;;;;;4998595;28;20415;-61
2022/03/11 02:12:31;;;;;;;5.82;5.32;;;;;;;;;;4997494;28;20038;-60
2022/03/11 02:14:56;;;;;;;5.38;4.88;;;;;;;;;;4998065;28;20459;-61
2022/03/11 02:17:22;;;;;;;6.55;5.82;;;;;;;;;;4997487;28;20049;-61
2022/03/11 02:19:47;;;;;;;5.93;5.43;;;;;;;;;;4999631;28;20040;-61
2022/03/11 02:22:15;;;;;;;5.93;5.43;;;;;;;;;;4993381;28;20034;-61
2022/03/11 02:24:41;;;;;;;5.72;5.22;;;;;;;;;;4998560;28;20449;-61
2022/03/11 02:27:06;;;;;;;6.68;5.22;;;;;;;;;;5005877;28;20113;-60
2022/03/11 02:29:32;;;;;;;5.88;5.38;;;;;;;;;;4997836;28;20038;-60
2022/03/11 02:31:57;;;;;;;7.20;5.70;;;;;;;;;;4998121;28;20033;-60
2022/03/11 02:34:23;;;;;;;5.38;4.88;;;;;;;;;;5001294;28;20170;-61
2022/03/11 02:36:49;;;;;;;5.72;5.22;;;;;;;;;;5003946;28;20753;-61
2022/03/11 02:39:14;;;;;;;4.80;4.35;;;;;;;;;;4999518;28;20089;-61
2022/03/11 02:41:42;;;;;;;4.60;4.20;;;;;;;;;;4995555;28;20367;-61
2022/03/11 02:44:08;;;;;;;5.80;5.30;;;;;;;;;;4995555;28;20093;-62
2022/03/11 02:46:34;;;;;;;9.05;6.03;;;;;;;;;;4998131;28;20537;-61
2022/03/11 02:48:59;;;;;;;6.25;5.65;;;;;;;;;;4997334;28;20430;-61
2022/03/11 02:51:25;;;;;;;7.32;6.18;;;;;;;;;;4998578;28;20486;-61
2022/03/11 02:53:50;;;;;;;6.30;5.57;;;;;;;;;;5011780;28;20042;-62
2022/03/11 02:56:16;;;;;;;12.02;6.72;;;;;;;;;;5003201;28;20044;-62
2022/03/11 02:58:42;;;;;;;8.85;5.82;;;;;;;;;;4997638;28;20108;-61
2022/03/11 03:01:10;;;;;;;5.82;5.32;;;;;;;;;;4998605;28;20869;-61
2022/03/11 03:03:36;;;;;;;5.88;5.38;;;;;;;;;;4996555;28;20048;-61
2022/03/11 03:06:03;;;;;;;5.35;4.85;;;;;;;;;;4994937;28;20722;-60
2022/03/11 03:08:28;;;;;;;7.53;6.82;;;;;;;;;;4997043;28;20554;-62
2022/03/11 03:10:54;;;;;;;6.32;5.82;;;;;;;;;;4997144;28;20088;-61
2022/03/11 03:13:19;;;;;;;6.47;5.93;;;;;;;;;;4995727;28;20076;-61
2022/03/11 03:15:45;;;;;;;5.65;5.18;;;;;;;;;;4996784;28;20380;-62
2022/03/11 03:18:10;;;;;;;5.72;5.22;;;;;;;;;;4997269;28;20097;-61
2022/03/11 03:20:36;;;;;;;8.70;7.00;;;;;;;;;;4994626;28;20037;-61
2022/03/11 03:23:01;;;;;;;5.50;5.10;;;;;;;;;;4997272;28;20439;-62
2022/03/11 03:25:27;;;;;;;6.22;5.63;;;;;;;;;;4998240;28;20081;-62
2022/03/11 03:27:52;;;;;;;5.00;4.50;;;;;;;;;;4996746;28;20033;-62
2022/03/11 03:30:19;;;;;;;6.10;5.60;;;;;;;;;;4995833;28;20099;-61
2022/03/11 03:32:44;;;;;;;6.82;6.22;;;;;;;;;;4997609;28;20030;-61
2022/03/11 03:35:11;;;;;;;6.70;5.63;;;;;;;;;;5002549;28;20022;-61
2022/03/11 03:37:36;;;;;;;5.72;5.22;;;;;;;;;;4999247;28;20132;-60
2022/03/11 03:40:02;;;;;;;7.07;6.47;;;;;;;;;;5000259;28;20061;-61
2022/03/11 03:42:28;;;;;;;6.35;5.38;;;;;;;;;;5000791;28;20053;-60
2022/03/11 03:44:56;;;;;;;7.57;6.75;;;;;;;;;;4998395;28;20034;-60
2022/03/11 03:47:22;;;;;;;6.88;6.28;;;;;;;;;;4999455;28;20026;-62
2022/03/11 03:49:47;;;;;;;6.55;5.93;;;;;;;;;;5000307;28;20045;-62
2022/03/11 03:52:12;;;;;;;7.70;6.50;;;;;;;;;;5002017;28;20022;-61
2022/03/11 03:54:39;;;;;;;7.20;6.60;;;;;;;;;;4998812;28;20117;-61
2022/03/11 03:57:05;;;;;;;8.13;7.32;;;;;;;;;;5000147;28;20558;-61
2022/03/11 03:59:30;;;;;;;7.70;6.35;;;;;;;;;;4999542;28;20065;-61
2022/03/11 04:01:55;;;;;;;8.90;6.63;;;;;;;;;;5003646;28;20030;-62
2022/03/11 04:04:21;;;;;;;6.43;5.82;;;;;;;;;;5000170;28;20105;-62
2022/03/11 04:06:46;;;;;;;6.10;5.40;;;;;;;;;;5001548;28;20033;-62
2022/03/11 04:09:12;;;;;;;6.80;6.13;;;;;;;;;;4999789;28;20026;-62
2022/03/11 04:11:39;;;;;;;7.32;6.63;;;;;;;;;;5001117;28;20510;-62
2022/03/11 04:14:04;;;;;;;6.80;6.15;;;;;;;;;;5001472;28;20029;-62
2022/03/11 04:16:30;;;;;;;7.38;6.80;;;;;;;;;;4999645;28;20474;-62
2022/03/11 04:18:56;;;;;;;6.00;5.40;;;;;;;;;;5000584;28;20108;-62
2022/03/11 04:21:21;;;;;;;6.68;6.07;;;;;;;;;;5002209;28;20444;-62
2022/03/11 04:23:48;;;;;;;6.28;5.63;;;;;;;;;;5000341;28;20181;-62
2022/03/11 04:26:14;;;;;;;6.35;5.75;;;;;;;;;;5002184;28;20079;-62
2022/03/11 04:28:40;;;;;;;7.78;6.78;;;;;;;;;;5001756;28;20037;-62
2022/03/11 04:31:07;;;;;;;6.75;6.18;;;;;;;;;;5001133;28;20515;-62
2022/03/11 04:33:33;;;;;;;7.45;5.82;;;;;;;;;;4999465;28;20407;-61
2022/03/11 04:35:58;;;;;;;7.03;6.00;;;;;;;;;;5000468;28;20036;-62
2022/03/11 04:38:24;;;;;;;12.02;7.72;;;;;;;;;;5000836;28;20049;-63
2022/03/11 04:40:49;;;;;;;5.82;5.32;;;;;;;;;;5005186;28;20030;-62
2022/03/11 04:43:15;;;;;;;5.25;4.78;;;;;;;;;;5000091;28;20026;-62
2022/03/11 04:45:40;;;;;;;7.55;6.13;;;;;;;;;;5002147;28;20030;-62
2022/03/11 04:48:06;;;;;;;7.63;5.80;;;;;;;;;;5001768;28;20034;-60
2022/03/11 04:50:32;;;;;;;6.15;5.65;;;;;;;;;;5002038;28;20076;-61
2022/03/11 04:52:57;;;;;;;6.18;5.68;;;;;;;;;;4998313;28;20045;-61
2022/03/11 04:55:22;;;;;;;7.38;6.50;;;;;;;;;;4996083;28;20034;-60
2022/03/11 04:57:48;;;;;;;8.70;5.18;;;;;;;;;;4997600;28;20502;-61
2022/03/11 05:00:14;;;;;;;7.30;6.60;;;;;;;;;;4995844;28;20038;-61
2022/03/11 05:02:45;;;;;;;6.10;5.60;;;;;;;;;;4998300;28;20033;-61
2022/03/11 05:05:12;;;;;;;5.28;4.78;;;;;;;;;;4997887;28;20358;-61
2022/03/11 05:07:37;;;;;;;6.35;5.75;;;;;;;;;;5000557;28;20022;-62
2022/03/11 05:10:05;;;;;;;6.03;5.53;;;;;;;;;;4997924;28;20096;-61
2022/03/11 05:12:31;;;;;;;7.20;6.47;;;;;;;;;;4997105;28;20023;-60
2022/03/11 05:14:56;;;;;;;5.93;5.38;;;;;;;;;;4995415;28;20041;-63
2022/03/11 05:17:22;;;;;;;7.20;5.60;;;;;;;;;;4997674;28;20080;-64
2022/03/11 05:19:47;;;;;;;6.78;6.13;;;;;;;;;;5000396;28;20103;-63
2022/03/11 05:22:13;;;;;;;20.80;5.57;;;;;;;;;;4999000;28;20030;-62
2022/03/11 05:24:38;;;;;;;6.93;6.13;;;;;;;;;;4997328;28;20447;-63
2022/03/11 05:27:05;;;;;;;7.00;5.60;;;;;;;;;;4998287;28;20022;-63
2022/03/11 05:29:32;;;;;;;6.30;5.72;;;;;;;;;;4999111;28;20750;-64
2022/03/11 05:31:58;;;;;;;6.55;6.05;;;;;;;;;;4999488;28;20041;-63
2022/03/11 05:34:23;;;;;;;9.48;6.75;;;;;;;;;;4999246;28;20080;-63
2022/03/11 05:36:49;;;;;;;6.30;5.68;;;;;;;;;;4996565;28;20089;-64
2022/03/11 05:39:14;;;;;;;11.43;6.60;;;;;;;;;;4999014;28;20035;-64
2022/03/11 05:41:40;;;;;;;5.97;5.35;;;;;;;;;;4999908;28;20383;-63
2022/03/11 05:44:05;;;;;;;7.03;6.00;;;;;;;;;;5000080;28;20458;-62
2022/03/11 05:46:31;;;;;;;7.45;6.03;;;;;;;;;;4992664;28;20062;-62
2022/03/11 05:48:56;;;;;;;6.18;5.68;;;;;;;;;;5000375;28;20037;-64
2022/03/11 05:51:22;;;;;;;6.35;5.75;;;;;;;;;;5000210;28;20383;-63
2022/03/11 05:53:47;;;;;;;6.30;5.70;;;;;;;;;;4997623;28;20032;-64
2022/03/11 05:56:12;;;;;;;15.98;6.57;;;;;;;;;;4993381;28;20375;-64
2022/03/11 05:58:38;;;;;;;5.75;5.15;;;;;;;;;;4996940;28;20394;-63
2022/03/11 06:01:03;;;;;;;5.72;5.20;;;;;;;;;;5002100;28;20030;-62
2022/03/11 06:03:29;;;;;;;11.02;6.88;;;;;;;;;;4997176;28;20037;-62
2022/03/11 06:05:55;;;;;;;7.15;6.45;;;;;;;;;;5000065;28;20030;-61
2022/03/11 06:08:21;;;;;;;8.05;5.65;;;;;;;;;;4999190;28;20045;-62
2022/03/11 06:10:47;;;;;;;9.02;6.40;;;;;;;;;;4998780;28;20030;-62
2022/03/11 06:13:14;;;;;;;5.43;4.93;;;;;;;;;;4997539;28;20298;-62
2022/03/11 06:15:43;;;;;;;7.95;6.43;;;;;;;;;;4995059;28;20038;-61
2022/03/11 06:18:10;;;;;;;6.53;5.88;;;;;;;;;;4998435;28;20061;-62
2022/03/11 06:20:36;;;;;;;5.50;4.97;;;;;;;;;;4999983;28;20396;-62
2022/03/11 06:23:02;;;;;;;6.32;5.72;;;;;;;;;;4998588;28;20098;-59
2022/03/11 06:25:28;;;;;;;6.60;5.75;;;;;;;;;;5000430;28;20498;-61
2022/03/11 06:27:53;;;;;;;5.63;5.13;;;;;;;;;;4998749;28;20034;-60
2022/03/11 06:30:19;;;;;;;6.25;5.63;;;;;;;;;;4997077;28;20497;-60
2022/03/11 06:32:46;;;;;;;6.18;5.63;;;;;;;;;;4996650;28;20045;-60
2022/03/11 06:35:15;;;;;;;6.43;5.60;;;;;;;;;;4998261;28;20034;-60
2022/03/11 06:37:43;;;;;;;6.00;5.50;;;;;;;;;;4997363;28;20053;-59
2022/03/11 06:40:10;;;;;;;7.28;6.10;;;;;;;;;;4995793;28;20030;-60
2022/03/11 06:42:36;;;;;;;6.55;5.97;;;;;;;;;;4996237;28;20038;-60
2022/03/11 06:45:02;;;;;;;5.50;4.90;;;;;;;;;;4996901;28;20037;-60
2022/03/11 06:47:27;;;;;;;6.82;5.30;;;;;;;;;;4996961;28;20862;-59
2022/03/11 06:49:52;;;;;;;6.85;4.97;;;;;;;;;;4997491;28;20026;-59
2022/03/11 06:52:18;;;;;;;9.07;5.22;;;;;;;;;;4998835;28;20026;-59
2022/03/11 06:54:43;;;;;;;5.50;5.03;;;;;;;;;;5000491;28;20029;-60
2022/03/11 06:57:08;;;;;;;5.40;4.90;;;;;;;;;;4999612;28;20030;-59
2022/03/11 06:59:34;;;;;;;6.15;5.30;;;;;;;;;;4998661;28;20045;-60
2022/03/11 07:01:59;;;;;;;6.97;6.38;;;;;;;;;;4997878;28;20068;-60
2022/03/11 07:04:24;;;;;;;5.22;4.72;;;;;;;;;;5006546;28;20021;-60
2022/03/11 07:06:50;;;;;;;5.38;4.97;;;;;;;;;;5001578;28;20038;-59
2022/03/11 07:09:15;;;;;;;6.05;5.55;;;;;;;;;;4999129;28;20026;-60
2022/03/11 07:11:40;;;;;;;6.55;5.43;;;;;;;;;;4997234;28;20037;-60
2022/03/11 07:14:06;;;;;;;10.73;4.93;;;;;;;;;;4999018;28;20030;-60
2022/03/11 07:16:31;;;;;;;4.68;4.28;;;;;;;;;;5002255;28;20026;-60
2022/03/11 07:18:57;;;;;;;5.40;4.47;;;;;;;;;;5002758;28;20029;-60
2022/03/11 07:21:22;;;;;;;5.22;4.70;;;;;;;;;;4999786;28;20056;-60
2022/03/11 07:23:54;;;;;;;7.50;5.60;;;;;;;;;;4998644;28;20037;-60
2022/03/11 07:26:19;;;;;;;6.57;5.97;;;;;;;;;;4998508;28;20030;-60
2022/03/11 07:28:45;;;;;;;5.97;4.90;;;;;;;;;;4999227;28;20029;-60
2022/03/11 07:31:10;;;;;;;6.07;5.45;;;;;;;;;;4997209;28;20704;-60
2022/03/11 07:33:36;;;;;;;5.03;4.63;;;;;;;;;;5003789;28;20373;-60
2022/03/11 07:36:02;;;;;;;6.22;5.63;;;;;;;;;;5004672;28;20116;-60
2022/03/11 07:38:30;;;;;;;6.38;5.80;;;;;;;;;;5001137;28;20430;-60
2022/03/11 07:40:57;;;;;;;13.38;5.93;;;;;;;;;;4996904;28;20105;-60
2022/03/11 07:43:24;;;;;;;5.40;4.85;;;;;;;;;;4998765;28;20021;-60
2022/03/11 07:45:49;;;;;;;5.55;5.05;;;;;;;;;;4994938;28;20128;-59
2022/03/11 07:48:14;;;;;;;6.18;5.68;;;;;;;;;;4998233;28;20061;-60
2022/03/11 07:50:40;;;;;;;10.25;6.25;;;;;;;;;;5000472;28;20060;-59
2022/03/11 07:53:05;;;;;;;7.30;6.60;;;;;;;;;;4998335;28;20131;-60
2022/03/11 07:55:31;;;;;;;7.13;6.03;;;;;;;;;;5002242;28;20038;-60
2022/03/11 07:57:56;;;;;;;5.63;5.13;;;;;;;;;;5001286;28;20030;-60
2022/03/11 08:00:22;;;;;;;8.75;7.55;;;;;;;;;;4997531;28;20037;-59
2022/03/11 08:02:47;;;;;;;6.00;5.28;;;;;;;;;;4998680;28;20030;-60
2022/03/11 08:05:15;;;;;;;6.07;5.30;;;;;;;;;;4998322;28;20040;-60
2022/03/11 08:07:48;;;;;;;6.57;5.75;;;;;;;;;;4996240;28;20041;-60
2022/03/11 08:10:15;;;;;;;5.07;4.68;;;;;;;;;;4998110;28;20112;-59
2022/03/11 08:12:41;;;;;;;7.82;6.35;;;;;;;;;;4999215;28;20507;-60
2022/03/11 08:15:07;;;;;;;5.35;4.95;;;;;;;;;;4998510;28;20034;-60
2022/03/11 08:17:32;;;;;;;11.00;5.95;;;;;;;;;;4999883;28;20115;-60
2022/03/11 08:19:58;;;;;;;5.93;5.38;;;;;;;;;;5000196;28;20064;-61
2022/03/11 08:22:23;;;;;;;5.47;5.05;;;;;;;;;;4995585;28;20133;-61
2022/03/11 08:24:48;;;;;;;5.70;5.20;;;;;;;;;;4999172;28;20101;-61
2022/03/11 08:27:15;;;;;;;7.53;6.03;;;;;;;;;;4985511;28;20034;-61
2022/03/11 08:29:40;;;;;;;6.95;6.25;;;;;;;;;;5001143;28;20026;-62
2022/03/11 08:32:06;;;;;;;6.50;6.00;;;;;;;;;;4996868;28;20128;-61
2022/03/11 08:34:32;;;;;;;6.88;6.28;;;;;;;;;;4999333;28;20129;-63
2022/03/11 08:36:57;;;;;;;6.30;5.70;;;;;;;;;;4993652;28;20048;-62
2022/03/11 08:39:22;;;;;;;11.23;6.90;;;;;;;;;;4997764;28;20044;-61
2022/03/11 08:41:48;;;;;;;7.05;6.35;;;;;;;;;;4996361;28;20136;-62
2022/03/11 08:44:13;;;;;;;7.18;6.53;;;;;;;;;;4997294;28;20706;-62
2022/03/11 08:46:39;;;;;;;5.80;5.30;;;;;;;;;;5000585;28;20034;-61
2022/03/11 08:49:07;;;;;;;6.97;6.38;;;;;;;;;;4999974;28;20029;-61
2022/03/11 08:51:32;;;;;;;6.00;5.40;;;;;;;;;;4999681;28;20034;-61
2022/03/11 08:53:58;;;;;;;6.80;6.20;;;;;;;;;;4996280;28;20034;-61
2022/03/11 08:56:23;;;;;;;5.57;5.18;;;;;;;;;;4997754;28;20026;-61
2022/03/11 08:58:50;;;;;;;6.25;5.65;;;;;;;;;;5000079;28;20380;-58
2022/03/11 09:01:16;;;;;;;7.25;6.15;;;;;;;;;;4999828;28;20054;-60
2022/03/11 09:03:41;;;;;;;6.13;5.65;;;;;;;;;;4998108;28;20080;-61
2022/03/11 09:06:07;;;;;;;6.05;5.55;;;;;;;;;;5001291;28;20194;-61
2022/03/11 09:08:33;;;;;;;6.15;5.57;;;;;;;;;;4999275;28;20478;-62
2022/03/11 09:10:58;;;;;;;6.03;5.53;;;;;;;;;;4997198;28;20061;-61
2022/03/11 09:13:23;;;;;;;5.35;4.95;;;;;;;;;;4999255;28;20064;-61
2022/03/11 09:15:49;;;;;;;6.72;6.10;;;;;;;;;;4997175;28;20026;-62
2022/03/11 09:18:14;;;;;;;8.02;5.43;;;;;;;;;;4999630;28;20495;-61
2022/03/11 09:20:40;;;;;;;7.10;6.32;;;;;;;;;;4999024;28;20030;-61
2022/03/11 09:23:06;;;;;;;6.10;5.50;;;;;;;;;;4999924;28;20399;-62
2022/03/11 09:25:31;;;;;;;5.85;5.35;;;;;;;;;;4999316;28;20027;-61
2022/03/11 09:27:57;;;;;;;7.35;6.65;;;;;;;;;;4997304;28;20537;-62
2022/03/11 09:30:22;;;;;;;7.22;6.63;;;;;;;;;;5000625;28;20125;-60
2022/03/11 09:32:48;;;;;;;6.32;5.82;;;;;;;;;;4995804;28;20499;-62
2022/03/11 09:35:15;;;;;;;6.45;5.95;;;;;;;;;;4996478;28;20632;-61
2022/03/11 09:37:41;;;;;;;9.77;5.93;;;;;;;;;;4996172;28;20100;-61
2022/03/11 09:40:07;;;;;;;5.57;5.13;;;;;;;;;;4998166;28;20405;-61
2022/03/11 09:42:33;;;;;;;6.18;5.68;;;;;;;;;;4999167;28;20030;-61
2022/03/11 09:44:59;;;;;;;6.28;5.68;;;;;;;;;;4998622;28;20083;-62
2022/03/11 09:47:24;;;;;;;6.88;6.28;;;;;;;;;;4998990;28;20903;-61
2022/03/11 09:49:51;;;;;;;7.72;6.38;;;;;;;;;;4996985;28;20060;-61
2022/03/11 09:52:19;;;;;;;5.80;5.30;;;;;;;;;;5000644;28;20039;-60
2022/03/11 09:54:45;;;;;;;6.07;5.47;;;;;;;;;;5001447;28;20030;-61
2022/03/11 09:57:15;;;;;;;6.70;6.00;;;;;;;;;;4998233;28;20093;-62
2022/03/11 09:59:40;;;;;;;7.10;6.20;;;;;;;;;;4996381;28;20082;-61
2022/03/11 10:02:12;;;;;;;6.65;6.07;;;;;;;;;;4997476;28;20368;-62
2022/03/11 10:04:37;;;;;;;6.78;6.25;;;;;;;;;;5002391;28;20467;-61
2022/03/11 10:07:04;;;;;;;7.22;6.43;;;;;;;;;;4999629;28;20164;-62
2022/03/11 10:09:30;;;;;;;6.38;5.88;;;;;;;;;;4994838;28;20050;-63
2022/03/11 10:11:56;;;;;;;8.65;7.95;;;;;;;;;;4999341;28;20030;-62
2022/03/11 10:14:36;;;;;;;6.13;5.63;;;;;;;;;;4998860;28;20041;-61
2022/03/11 10:17:04;;;;;;;7.57;6.75;;;;;;;;;;4997002;28;20038;-61
2022/03/11 10:19:29;;;;;;;7.07;6.43;;;;;;;;;;4997765;28;20045;-62
2022/03/11 10:21:58;;;;;;;6.80;6.28;;;;;;;;;;4998429;28;20035;-61
2022/03/11 10:24:24;;;;;;;7.50;6.90;;;;;;;;;;4995226;28;20025;-61
2022/03/11 10:26:51;;;;;;;6.82;6.25;;;;;;;;;;4999288;28;20044;-62
2022/03/11 10:29:20;;;;;;;8.43;7.43;;;;;;;;;;4998221;28;20030;-61
2022/03/11 10:31:49;;;;;;;7.72;7.00;;;;;;;;;;4999317;28;20544;-62
2022/03/11 10:34:31;;;;;;;9.20;6.57;;;;;;;;;;5001411;28;20056;-62
2022/03/11 10:37:01;;;;;;;7.72;7.03;;;;;;;;;;5000455;28;20040;-60
2022/03/11 10:39:38;;;;;;;7.97;7.28;;;;;;;;;;4998987;28;20033;-63
2022/03/11 10:42:20;;;;;;;7.55;6.85;;;;;;;;;;4996701;28;20038;-62
2022/03/11 10:45:08;;;;;;;7.13;6.50;;;;;;;;;;4996586;28;20124;-62
2022/03/11 10:47:36;;;;;;;7.20;6.63;;;;;;;;;;4996399;28;20029;-62
2022/03/11 10:50:06;;;;;;;7.43;6.82;;;;;;;;;;4994955;28;20041;-60
2022/03/11 10:52:31;;;;;;;9.38;7.60;;;;;;;;;;4995345;28;20112;-60
2022/03/11 10:54:58;;;;;;;7.35;6.65;;;;;;;;;;4994891;28;20430;-61
2022/03/11 10:57:34;;;;;;;7.00;6.40;;;;;;;;;;5001030;28;20049;-62
2022/03/11 11:00:20;;;;;;;6.55;6.05;;;;;;;;;;4994863;28;20046;-61
2022/03/11 11:02:50;;;;;;;6.90;6.30;;;;;;;;;;4993407;28;20073;-62
2022/03/11 11:05:15;;;;;;;6.32;5.72;;;;;;;;;;4994649;28;20053;-64
2022/03/11 11:07:41;;;;;;;5.90;5.40;;;;;;;;;;4993885;28;20042;-62
2022/03/11 11:10:09;;;;;;;7.72;6.97;;;;;;;;;;4996413;28;20106;-62
2022/03/11 11:12:35;;;;;;;7.20;6.60;;;;;;;;;;4993465;28;20072;-61
2022/03/11 11:15:02;;;;;;;6.32;5.82;;;;;;;;;;4992889;28;20128;-61
2022/03/11 11:17:28;;;;;;;6.55;6.03;;;;;;;;;;4994888;28;20796;-61
2022/03/11 11:19:57;;;;;;;9.13;8.30;;;;;;;;;;4992335;28;20041;-61
2022/03/11 11:22:25;;;;;;;6.95;6.28;;;;;;;;;;4992644;28;20096;-62
2022/03/11 11:24:53;;;;;;;6.78;6.15;;;;;;;;;;4992896;28;20073;-62
2022/03/11 11:27:20;;;;;;;7.32;6.72;;;;;;;;;;4993829;28;20088;-61
2022/03/11 11:29:48;;;;;;;7.70;7.05;;;;;;;;;;4999124;28;20030;-62
2022/03/11 11:32:16;;;;;;;6.80;6.20;;;;;;;;;;4998495;28;20038;-63
2022/03/11 11:34:42;;;;;;;7.38;6.78;;;;;;;;;;4995363;28;20570;-62
2022/03/11 11:37:36;;;;;;;7.05;6.47;;;;;;;;;;4980271;28;20120;-63
2022/03/11 11:40:19;;;;;;;7.00;6.47;;;;;;;;;;5002424;28;20048;-62
2022/03/11 11:43:26;;;;;;;7.30;6.60;;;;;;;;;;4994833;28;20041;-63
2022/03/11 11:45:56;;;;;;;7.88;7.28;;;;;;;;;;4994093;28;20046;-62
2022/03/11 11:48:34;;;;;;;7.82;7.25;;;;;;;;;;4996240;28;20052;-62
2022/03/11 11:51:03;;;;;;;8.27;7.57;;;;;;;;;;4995871;28;20382;-63
2022/03/11 11:53:35;;;;;;;7.80;7.20;;;;;;;;;;5000774;28;20064;-62
2022/03/11 11:56:01;;;;;;;7.38;6.72;;;;;;;;;;4995434;28;20448;-63
2022/03/11 11:58:30;;;;;;;6.45;5.95;;;;;;;;;;4997033;28;20034;-61
2022/03/11 12:00:57;;;;;;;7.10;6.50;;;;;;;;;;4996919;28;20112;-61
2022/03/11 12:03:48;;;;;;;9.30;8.43;;;;;;;;;;4995146;28;20026;-62
2022/03/11 12:06:53;;;;;;;10.20;8.68;;;;;;;;;;4997262;28;20121;-62
2022/03/11 12:09:47;;;;;;;7.95;7.35;;;;;;;;;;4999267;28;20037;-62
2022/03/11 12:12:18;;;;;;;8.15;7.55;;;;;;;;;;4999782;28;20034;-62
2022/03/11 12:15:06;;;;;;;7.00;6.50;;;;;;;;;;4998213;28;20034;-62
2022/03/11 12:17:38;;;;;;;7.60;7.00;;;;;;;;;;4999170;28;20197;-62
2022/03/11 12:20:28;;;;;;;8.68;7.97;;;;;;;;;;4999407;28;20038;-62
2022/03/11 12:23:15;;;;;;;7.77;7.07;;;;;;;;;;4999926;28;20052;-61
2022/03/11 12:25:50;;;;;;;7.45;6.82;;;;;;;;;;4996357;28;20038;-61
2022/03/11 12:28:24;;;;;;;6.88;6.38;;;;;;;;;;4995669;28;20030;-63
2022/03/11 12:30:50;;;;;;;8.20;7.50;;;;;;;;;;5000356;28;20045;-62
2022/03/11 12:33:17;;;;;;;7.82;7.22;;;;;;;;;;5001468;28;20022;-63
2022/03/11 12:35:45;;;;;;;8.25;7.65;;;;;;;;;;5003483;28;20096;-62
2022/03/11 12:38:19;;;;;;;8.55;7.85;;;;;;;;;;5000095;28;20034;-62
2022/03/11 12:40:46;;;;;;;9.20;7.00;;;;;;;;;;5005405;28;20798;-62
2022/03/11 12:43:13;;;;;;;8.40;7.80;;;;;;;;;;4998738;28;20042;-63
2022/03/11 12:45:47;;;;;;;8.60;7.90;;;;;;;;;;4995253;28;20030;-63
2022/03/11 12:48:37;;;;;;;7.50;6.80;;;;;;;;;;4996954;28;20425;-62
2022/03/11 12:51:04;;;;;;;7.95;7.35;;;;;;;;;;4996719;28;20073;-62
2022/03/11 12:53:30;;;;;;;8.45;7.72;;;;;;;;;;4998395;28;20026;-62
2022/03/11 12:55:56;;;;;;;8.15;7.50;;;;;;;;;;5002320;28;20486;-62
2022/03/11 12:58:25;;;;;;;9.05;8.30;;;;;;;;;;5000418;28;20531;-63
2022/03/11 13:00:52;;;;;;;7.35;6.70;;;;;;;;;;4999204;28;20049;-62
2022/03/11 13:03:24;;;;;;;9.38;8.57;;;;;;;;;;4999325;28;20526;-63
2022/03/11 13:05:50;;;;;;;7.68;7.07;;;;;;;;;;4996734;28;20041;-64
2022/03/11 13:08:17;;;;;;;8.95;8.07;;;;;;;;;;4994863;28;20701;-62
2022/03/11 13:10:47;;;;;;;7.80;7.20;;;;;;;;;;4996104;28;20065;-63
2022/03/11 13:13:13;;;;;;;8.38;7.78;;;;;;;;;;4996070;28;20049;-63
2022/03/11 13:15:40;;;;;;;7.97;7.22;;;;;;;;;;4991612;28;20034;-62
2022/03/11 13:18:11;;;;;;;8.88;8.18;;;;;;;;;;4996253;28;20037;-63
2022/03/11 13:20:53;;;;;;;9.80;8.95;;;;;;;;;;4996811;28;20038;-63
2022/03/11 13:23:22;;;;;;;7.25;6.65;;;;;;;;;;4997347;28;20383;-63
2022/03/11 13:26:01;;;;;;;9.02;8.32;;;;;;;;;;4999671;28;20026;-63
2022/03/11 13:28:41;;;;;;;10.63;9.60;;;;;;;;;;4999251;28;20026;-63
2022/03/11 13:31:16;;;;;;;14.73;12.88;;;;;;;;;;4997033;28;20064;-63
2022/03/11 13:33:44;;;;;;;9.40;8.60;;;;;;;;;;4999444;28;20419;-63
2022/03/11 13:36:10;;;;;;;9.20;8.45;;;;;;;;;;4993847;28;20036;-62
2022/03/11 13:38:39;;;;;;;8.32;7.72;;;;;;;;;;4999361;28;20041;-63
2022/03/11 13:41:09;;;;;;;10.25;9.35;;;;;;;;;;4997577;28;20040;-60
2022/03/11 13:43:37;;;;;;;13.10;11.93;;;;;;;;;;4995916;28;20058;-60
2022/03/11 13:46:04;;;;;;;14.10;11.82;;;;;;;;;;4997846;28;20038;-60
2022/03/11 13:48:36;;;;;;;10.15;9.20;;;;;;;;;;4994595;28;20036;-61
2022/03/11 13:51:07;;;;;;;9.75;8.75;;;;;;;;;;4998460;28;20467;-61
2022/03/11 13:53:33;;;;;;;10.88;9.77;;;;;;;;;;4992388;28;20026;-60
2022/03/11 13:56:01;;;;;;;8.75;8.15;;;;;;;;;;4997691;28;20129;-60
2022/03/11 13:58:27;;;;;;;8.73;8.02;;;;;;;;;;4999554;28;20117;-61
2022/03/11 14:00:53;;;;;;;9.18;8.38;;;;;;;;;;4998374;28;20080;-61
2022/03/11 14:03:21;;;;;;;10.70;9.65;;;;;;;;;;4999238;28;20420;-63
2022/03/11 14:05:48;;;;;;;21.95;11.45;;;;;;;;;;5001754;28;20056;-62
2022/03/11 14:08:24;;;;;;;10.15;9.30;;;;;;;;;;4998145;28;20062;-63
2022/03/11 14:10:49;;;;;;;9.95;9.18;;;;;;;;;;5003397;28;20113;-63
2022/03/11 14:13:16;;;;;;;8.32;7.65;;;;;;;;;;5000252;28;20030;-62
2022/03/11 14:15:44;;;;;;;10.65;9.73;;;;;;;;;;5002868;28;20029;-61
2022/03/11 14:18:13;;;;;;;9.45;8.40;;;;;;;;;;4991473;28;20045;-62
2022/03/11 14:20:44;;;;;;;11.82;9.45;;;;;;;;;;5004303;28;20035;-61
2022/03/11 14:23:10;;;;;;;8.50;7.65;;;;;;;;;;5004237;28;20033;-61
2022/03/11 14:25:36;;;;;;;7.60;7.00;;;;;;;;;;5001268;28;20088;-61
2022/03/11 14:28:06;;;;;;;9.40;8.65;;;;;;;;;;5001646;28;20112;-61
2022/03/11 14:30:32;;;;;;;8.55;7.90;;;;;;;;;;4998656;28;20468;-60
2022/03/11 14:32:57;;;;;;;8.75;8.05;;;;;;;;;;5001511;28;20038;-61
2022/03/11 14:35:23;;;;;;;10.20;9.20;;;;;;;;;;5002978;28;20033;-61
2022/03/11 14:37:49;;;;;;;9.18;8.20;;;;;;;;;;5002042;28;20034;-60
2022/03/11 14:40:16;;;;;;;10.32;9.38;;;;;;;;;;5003819;28;20678;-60
2022/03/11 14:42:43;;;;;;;9.30;8.60;;;;;;;;;;5000943;28;20030;-60